Columbus, Ohio
Traffic Map
Current Weather Conditions
Columbus, Ohio
Broken Clouds
Broken Clouds
48°
Feels Like: 45°
Wind Chill: 45° Ceiling: 3000
Heat Index: 48° Visibility: 10mi
Dew Point: 35° Wind: 6mph
Humidity: 61% Direction: 150° (SSE)
Pressure: 30.02in Gusts: 0mph
Raw Report DataKCMH 231351Z 15005KT 10SM BKN030 BKN047 09/02 A3002 RMK AO2 SLP167 T00890017 $
Traffic Incident Summary
Active as of:
Severity:
Category:
InformationThere was an issue retrieving the traffic information for this location. Please try a different location or try again shortly.
Advertisements
Track Severe Weather on mobile